Terminal Aerodrome Forecast
Issued by NWS

Home | Current Version | Previous Version | Text Only | Print | Product List | Glossary On
Versions: 1 2 3 4 5 6 7 8 9 10 11 12 13 14 15 16 17 18 19 20 21 22 23 24 25 26 27
000
FTUS45 KSLC 281120
TAFEVW
TAF
KEVW 281120Z 2812/2912 12006KT P6SM SCT070 BKN110
     FM281600 10007KT P6SM VCSH SCT080 BKN100
     FM282100 34006KT P6SM VCTS BKN070CB BKN100
     FM290400 23008KT P6SM VCSH SCT070 BKN100
     FM290800 12008KT P6SM VCSH SCT070 BKN110=

USA.gov is the U.S. government's official web portal to all federal, state and local government web resources and services.